Time;durP1;ratioP1;P1;durP2;ratioP2;P2;SDS_P1;SDS_P2;PMS_P1;PMS_P2;Temp;Humidity;BMP_temperature;BMP_pressure;BME280_temperature;BME280_humidity;BME280_pressure;Samples;Min_cycle;Max_cycle;Signal;HPM_P1;HPM_P2
2022/11/14 00:02:37;;;;;;;8.40;4.10;;;;;;;8.13;85.59;100135.37;102209;1300;75275;-24
2022/11/14 00:05:23;;;;;;;8.50;4.30;;;;;;;7.89;85.89;100136.47;102121;1297;61850;-24
2022/11/14 00:08:20;;;;;;;7.70;4.70;;;;;;;7.60;87.35;100146.09;102054;1301;63004;-24
2022/11/14 00:11:06;;;;;;;8.50;4.50;;;;;;;7.79;87.34;100142.90;101933;1298;75604;-24
2022/11/14 00:13:51;;;;;;;6.30;4.30;;;;;;;8.33;85.37;100139.34;102029;1299;77128;-24
2022/11/14 00:16:37;;;;;;;6.70;3.90;;;;;;;8.45;84.03;100138.52;102122;1301;74172;-25
2022/11/14 00:19:23;;;;;;;6.20;3.50;;;;;;;8.36;84.51;100135.71;102117;1302;62866;-25
2022/11/14 00:22:08;;;;;;;6.20;3.50;;;;;;;8.16;84.48;100139.02;102353;1293;61646;-25
2022/11/14 00:24:54;;;;;;;5.60;3.30;;;;;;;7.89;84.92;100139.24;102229;1302;76178;-23
2022/11/14 00:27:39;;;;;;;3.30;2.10;;;;;;;7.73;85.53;100135.40;102194;1300;76827;-23
2022/11/14 00:30:26;;;;;;;4.40;2.10;;;;;;;8.36;84.70;100135.20;102171;1302;75184;-23
2022/11/14 00:33:12;;;;;;;6.10;2.90;;;;;;;8.91;82.93;100131.64;102042;1303;61802;-23
2022/11/14 00:36:04;;;;;;;4.00;2.70;;;;;;;8.86;81.89;100126.89;102227;1302;61808;-23
2022/11/14 00:38:53;;;;;;;4.50;2.50;;;;;;;8.62;82.03;100128.25;102224;1302;76514;-23
2022/11/14 00:41:40;;;;;;;3.80;2.70;;;;;;;8.30;82.51;100128.39;102139;1302;76632;-23
2022/11/14 00:44:25;;;;;;;5.20;3.50;;;;;;;7.96;83.49;100134.91;101987;1304;74138;-23
2022/11/14 00:47:11;;;;;;;4.20;2.20;;;;;;;7.82;84.44;100128.52;102192;1301;64642;-23
2022/11/14 00:49:57;;;;;;;3.40;2.20;;;;;;;8.43;83.80;100122.70;102249;1302;61580;-23
2022/11/14 00:52:43;;;;;;;4.40;2.70;;;;;;;8.93;82.15;100118.17;102151;1301;75642;-23
2022/11/14 00:55:28;;;;;;;6.00;3.00;;;;;;;8.86;81.12;100121.55;102283;1302;76617;-23
2022/11/14 00:58:14;;;;;;;3.80;2.40;;;;;;;8.57;81.72;100115.21;102177;1297;75515;-23
2022/11/14 01:01:00;;;;;;;3.60;2.70;;;;;;;8.24;82.43;100109.52;102099;1302;61946;-23
2022/11/14 01:03:52;;;;;;;4.10;2.80;;;;;;;7.94;83.49;100114.43;102003;1302;62913;-23
2022/11/14 01:06:37;;;;;;;3.70;2.10;;;;;;;7.80;84.13;100116.58;102035;1301;76388;-23
2022/11/14 01:09:23;;;;;;;5.50;2.30;;;;;;;8.49;83.83;100116.98;102170;1301;76825;-23
2022/11/14 01:12:09;;;;;;;6.40;2.80;;;;;;;9.06;81.62;100112.25;102098;1301;74160;-23
2022/11/14 01:14:54;;;;;;;3.10;2.20;;;;;;;9.00;80.90;100112.27;102034;1301;62825;-23
2022/11/14 01:17:40;;;;;;;4.50;3.00;;;;;;;8.64;80.96;100106.54;102088;1297;62912;-23
2022/11/14 01:20:26;;;;;;;4.40;2.70;;;;;;;8.30;81.96;100108.66;102153;1302;76568;-23
2022/11/14 01:23:13;;;;;;;3.20;2.30;;;;;;;7.97;83.10;100109.46;102232;1292;76857;-23
2022/11/14 01:26:06;;;;;;;4.90;2.20;;;;;;;7.74;84.41;100115.47;101921;1302;75363;-23
2022/11/14 01:28:52;;;;;;;4.10;2.00;;;;;;;8.38;83.54;100111.73;102057;1296;63004;-23
2022/11/14 01:31:38;;;;;;;4.60;2.40;;;;;;;8.73;81.65;100109.14;102198;1298;61714;-23
2022/11/14 01:34:23;;;;;;;3.30;2.40;;;;;;;8.61;81.77;100112.02;102201;1301;76319;-23
2022/11/14 01:37:09;;;;;;;5.40;2.60;;;;;;;8.32;82.04;100111.86;102254;1302;76826;-23
2022/11/14 01:39:55;;;;;;;3.10;2.40;;;;;;;8.05;82.72;100110.57;102138;1301;75291;-23
2022/11/14 01:42:41;;;;;;;2.90;2.10;;;;;;;7.81;83.79;100110.09;102071;1300;63246;-23
2022/11/14 01:45:52;;;;;;;2.90;1.70;;;;;;;8.30;83.34;100107.13;102196;1301;62055;-23
2022/11/14 01:48:41;;;;;;;3.40;2.30;;;;;;;8.68;81.75;100107.86;102137;1297;75309;-23
2022/11/14 01:51:30;;;;;;;3.30;2.30;;;;;;;8.53;81.50;100109.89;102103;1302;76672;-23
2022/11/14 01:54:27;;;;;;;3.50;2.60;;;;;;;8.20;82.05;100109.41;102075;1302;74268;-23
2022/11/14 01:57:14;;;;;;;4.90;2.40;;;;;;;7.89;83.12;100115.92;101925;1304;61238;-23
2022/11/14 02:00:02;;;;;;;2.50;1.70;;;;;;;7.70;84.24;100112.23;101912;1300;62614;-23
2022/11/14 02:02:47;;;;;;;2.60;1.80;;;;;;;8.35;83.59;100108.95;101939;1306;76534;-25
2022/11/14 02:05:33;;;;;;;2.50;1.90;;;;;;;8.84;81.53;100106.27;102014;1300;76976;-24
2022/11/14 02:08:19;;;;;;;3.30;2.40;;;;;;;8.74;80.95;100104.39;101969;1300;75331;-26
2022/11/14 02:11:05;;;;;;;3.50;2.30;;;;;;;8.48;81.51;100103.23;101936;1300;62612;-23
2022/11/14 02:13:51;;;;;;;3.80;2.90;;;;;;;8.18;82.07;100103.28;101980;1302;62873;-23
2022/11/14 02:16:38;;;;;;;3.60;2.40;;;;;;;7.90;82.98;100104.94;101998;1300;76672;-23
2022/11/14 02:19:24;;;;;;;3.50;1.90;;;;;;;7.71;83.97;100101.83;101932;1299;75643;-23
2022/11/14 02:22:09;;;;;;;2.00;1.70;;;;;;;8.25;83.48;100099.29;102323;1302;75397;-23
2022/11/14 02:24:55;;;;;;;4.20;2.50;;;;;;;8.65;81.94;100092.41;102041;1306;61831;-23
2022/11/14 02:27:41;;;;;;;4.60;2.10;;;;;;;8.55;81.42;100090.89;102004;1302;61927;-23
2022/11/14 02:30:27;;;;;;;4.50;2.60;;;;;;;8.28;82.07;100087.16;102141;1297;74472;-23
2022/11/14 02:33:13;;;;;;;3.20;2.50;;;;;;;7.96;82.68;100082.85;102134;1301;76813;-23
2022/11/14 02:35:59;;;;;;;2.70;1.70;;;;;;;7.75;83.86;100085.02;102162;1308;75721;-23
2022/11/14 02:38:45;;;;;;;3.20;2.00;;;;;;;8.30;82.96;100084.80;102182;1300;61767;-23
2022/11/14 02:41:30;;;;;;;4.60;2.50;;;;;;;8.72;81.52;100086.13;102178;1299;61748;-23
2022/11/14 02:44:16;;;;;;;2.80;2.20;;;;;;;8.62;80.99;100081.72;102056;1305;76430;-23
2022/11/14 02:47:03;;;;;;;4.90;2.10;;;;;;;8.30;81.57;100080.00;102049;1300;75686;-23
2022/11/14 02:49:48;;;;;;;4.30;2.60;;;;;;;7.98;82.49;100083.11;102159;1302;74350;-23
2022/11/14 02:52:34;;;;;;;2.80;2.20;;;;;;;7.68;83.67;100083.97;102185;1306;62993;-23
2022/11/14 02:55:20;;;;;;;2.70;1.70;;;;;;;7.50;84.97;100088.23;102126;1302;61721;-23
2022/11/14 02:58:06;;;;;;;3.30;2.20;;;;;;;8.15;84.04;100074.77;102059;1302;74402;-23
2022/11/14 03:00:52;;;;;;;3.90;2.20;;;;;;;8.64;81.60;100076.21;102037;1302;76758;-23
2022/11/14 03:03:58;;;;;;;11.40;3.40;;;;;;;8.45;80.83;100072.27;101960;1301;74254;-23
2022/11/14 03:06:43;;;;;;;6.90;3.70;;;;;;;8.04;81.95;100070.66;102244;1297;62805;-23
2022/11/14 03:09:29;;;;;;;5.20;3.50;;;;;;;7.64;83.76;100068.30;102110;1301;61912;-23
2022/11/14 03:12:18;;;;;;;5.50;3.10;;;;;;;7.18;86.36;100066.17;102106;1300;75123;-23
2022/11/14 03:15:05;;;;;;;8.40;3.80;;;;;;;7.43;85.90;100063.70;102091;1307;76585;-23
2022/11/14 03:17:51;;;;;;;5.40;3.60;;;;;;;7.60;84.64;100060.59;101948;1305;75165;-23
2022/11/14 03:20:36;;;;;;;4.60;3.30;;;;;;;7.40;85.43;100059.71;102050;1296;61253;-23
2022/11/14 03:23:22;;;;;;;4.80;3.20;;;;;;;7.26;85.30;100067.66;102214;1302;61752;-23
2022/11/14 03:26:08;;;;;;;5.10;3.30;;;;;;;6.83;86.63;100067.25;102240;1303;75360;-23
2022/11/14 03:28:54;;;;;;;7.80;2.20;;;;;;;6.62;87.49;100067.53;101926;1303;76888;-23
2022/11/14 03:31:40;;;;;;;3.30;2.20;;;;;;;7.25;86.89;100066.66;102163;1302;74233;-23
2022/11/14 03:34:25;;;;;;;5.90;3.10;;;;;;;7.55;84.59;100067.89;102119;1302;62986;-23
2022/11/14 03:37:11;;;;;;;6.30;3.30;;;;;;;7.39;83.70;100072.73;102056;1300;62760;-23
2022/11/14 03:39:57;;;;;;;5.80;3.30;;;;;;;7.10;83.66;100078.15;102032;1307;75484;-23
2022/11/14 03:42:43;;;;;;;6.90;3.90;;;;;;;6.81;84.28;100076.14;101963;1305;76882;-23
2022/11/14 03:45:28;;;;;;;7.20;2.60;;;;;;;6.58;85.22;100076.73;102082;1300;75199;-23
2022/11/14 03:48:14;;;;;;;11.10;4.20;;;;;;;6.95;85.70;100078.73;102028;1302;61904;-24
2022/11/14 03:51:00;;;;;;;8.20;4.70;;;;;;;7.05;85.37;100077.56;102231;1302;61932;-24
2022/11/14 03:53:45;;;;;;;10.90;7.10;;;;;;;6.95;85.94;100077.66;102120;1301;75310;-24
2022/11/14 03:56:31;;;;;;;36.10;21.00;;;;;;;6.91;86.00;100075.62;102131;1300;76798;-23
2022/11/14 03:59:17;;;;;;;23.60;13.80;;;;;;;6.74;85.91;100069.38;102171;1297;74165;-23
2022/11/14 04:02:03;;;;;;;5.80;4.50;;;;;;;6.53;85.22;100068.35;102246;1297;62887;-23
2022/11/14 04:04:49;;;;;;;132.10;48.00;;;;;;;7.02;84.34;100076.48;102091;1301;62843;-23
2022/11/14 04:07:35;;;;;;;43.70;18.60;;;;;;;7.43;82.20;100075.44;102328;1302;76338;-23
2022/11/14 04:10:20;;;;;;;43.10;21.10;;;;;;;7.24;81.41;100076.25;102205;1300;75663;-23
2022/11/14 04:13:06;;;;;;;419.30;178.10;;;;;;;6.96;83.14;100071.95;102293;1300;75156;-23
2022/11/14 04:15:56;;;;;;;288.80;102.20;;;;;;;6.73;84.38;100075.85;102131;1301;62937;-23
2022/11/14 04:18:41;;;;;;;195.60;74.20;;;;;;;6.49;84.33;100075.45;101962;1302;62899;-23
2022/11/14 04:21:27;;;;;;;66.90;25.70;;;;;;;6.32;84.97;100074.32;102124;1300;75475;-23
2022/11/14 04:24:13;;;;;;;70.10;25.50;;;;;;;6.94;85.08;100079.30;102282;1302;76686;-23
2022/11/14 04:26:58;;;;;;;228.80;89.30;;;;;;;7.28;83.29;100076.55;102128;1307;75069;-23
2022/11/14 04:29:44;;;;;;;99.60;43.50;;;;;;;6.80;85.24;100076.15;102042;1301;62802;-24
2022/11/14 04:32:30;;;;;;;129.60;51.70;;;;;;;6.58;86.87;100073.95;101973;1302;62252;-23
2022/11/14 04:35:16;;;;;;;132.80;54.30;;;;;;;6.57;87.37;100072.45;102159;1300;76165;-25
2022/11/14 04:38:01;;;;;;;70.90;28.40;;;;;;;6.50;86.75;100076.91;102195;1302;75804;-23
2022/11/14 04:40:51;;;;;;;54.30;23.30;;;;;;;7.13;85.68;100081.46;102151;1301;75341;-24
2022/11/14 04:43:37;;;;;;;33.30;16.20;;;;;;;7.67;83.58;100083.86;102020;1302;63146;-23
2022/11/14 04:46:22;;;;;;;42.40;20.40;;;;;;;7.63;82.42;100085.64;101992;1301;61849;-24
2022/11/14 04:49:08;;;;;;;25.40;11.60;;;;;;;7.36;82.69;100088.42;102097;1301;76355;-23
2022/11/14 04:51:54;;;;;;;18.40;8.10;;;;;;;7.07;83.15;100091.63;101999;1301;75768;-23
2022/11/14 04:54:39;;;;;;;9.30;6.10;;;;;;;6.85;83.53;100089.39;102116;1301;74236;-23
2022/11/14 04:57:25;;;;;;;7.20;3.60;;;;;;;6.70;83.89;100090.29;102055;1301;64342;-23
2022/11/14 05:00:12;;;;;;;6.10;3.50;;;;;;;7.34;83.34;100093.69;102116;1301;63084;-23
2022/11/14 05:02:58;;;;;;;6.60;3.80;;;;;;;7.84;81.17;100092.82;101945;1301;76359;-24
2022/11/14 05:05:44;;;;;;;7.00;3.90;;;;;;;7.77;80.60;100097.69;101045;1292;1204102;-23
2022/11/14 05:08:30;;;;;;;3.60;2.80;;;;;;;7.47;80.91;100099.59;101915;1293;74521;-23
2022/11/14 05:11:18;;;;;;;4.30;3.00;;;;;;;7.14;81.72;100102.45;101972;1301;62977;-24
2022/11/14 05:14:03;;;;;;;12.60;7.30;;;;;;;6.90;82.67;100106.08;101886;1301;61876;-23
2022/11/14 05:16:49;;;;;;;6.80;3.60;;;;;;;6.64;83.85;100100.95;102085;1306;76468;-23
2022/11/14 05:19:34;;;;;;;5.30;3.40;;;;;;;7.18;82.98;100103.83;102132;1302;76702;-24
2022/11/14 05:22:20;;;;;;;7.20;3.60;;;;;;;7.58;80.82;100102.47;102093;1302;74136;-23
2022/11/14 05:25:06;;;;;;;14.40;7.80;;;;;;;7.65;80.83;100101.59;102154;1300;62043;-23
2022/11/14 05:27:52;;;;;;;13.70;7.50;;;;;;;7.51;81.43;100106.63;101925;1297;61710;-24
2022/11/14 05:30:38;;;;;;;14.80;8.20;;;;;;;7.34;81.73;100104.42;101904;1295;75411;-23
2022/11/14 05:33:24;;;;;;;16.10;8.80;;;;;;;7.11;82.08;100103.85;101941;1300;76335;-26
2022/11/14 05:36:11;;;;;;;9.00;4.80;;;;;;;6.92;82.64;100105.77;101966;1301;75119;-26
2022/11/14 05:38:57;;;;;;;29.00;14.80;;;;;;;7.49;80.91;100109.32;101986;1304;61313;-25
2022/11/14 05:41:43;;;;;;;54.20;24.30;;;;;;;7.86;79.05;100106.91;102047;1301;61821;-22
2022/11/14 05:44:28;;;;;;;35.40;15.50;;;;;;;8.00;79.58;100107.35;102036;1300;76463;-24
2022/11/14 05:47:14;;;;;;;22.00;11.50;;;;;;;7.86;80.00;100115.70;101989;1301;75919;-23
2022/11/14 05:50:00;;;;;;;24.00;12.40;;;;;;;7.68;80.82;100115.79;102169;1286;75280;-22
2022/11/14 05:52:45;;;;;;;33.40;17.60;;;;;;;7.38;80.79;100123.34;102183;1301;62902;-22
2022/11/14 05:55:31;;;;;;;22.80;12.20;;;;;;;6.86;82.64;100125.92;102181;1302;61733;-25
2022/11/14 05:58:17;;;;;;;14.00;7.70;;;;;;;7.62;79.87;100120.05;102105;1301;76340;-23
2022/11/14 06:01:07;;;;;;;10.40;5.10;;;;;;;8.02;77.53;100121.61;102084;1297;76652;-22
2022/11/14 06:03:53;;;;;;;7.70;4.10;;;;;;;7.96;77.72;100118.47;101966;1302;75052;-23
2022/11/14 06:06:38;;;;;;;7.20;3.30;;;;;;;7.77;78.48;100118.59;102084;1301;62955;-23
2022/11/14 06:09:24;;;;;;;10.10;5.90;;;;;;;7.40;78.83;100119.30;102048;1301;62994;-22
2022/11/14 06:12:10;;;;;;;5.70;3.60;;;;;;;7.21;80.10;100116.27;101964;1302;75455;-22
2022/11/14 06:14:56;;;;;;;11.60;5.90;;;;;;;7.11;80.50;100115.22;102094;1294;75830;-23
2022/11/14 06:17:42;;;;;;;7.70;3.90;;;;;;;7.33;79.78;100111.16;102025;1301;74032;-22
2022/11/14 06:20:27;;;;;;;7.20;4.30;;;;;;;8.13;78.10;100108.39;101970;1296;63036;-23
2022/11/14 06:23:13;;;;;;;15.40;7.30;;;;;;;7.95;77.15;100109.70;101960;1301;62830;-23
2022/11/14 06:26:00;;;;;;;13.80;7.30;;;;;;;7.78;78.07;100115.27;101969;1295;76541;-23
2022/11/14 06:28:46;;;;;;;10.80;4.40;;;;;;;7.68;79.04;100115.98;102135;1302;76644;-23
2022/11/14 06:31:32;;;;;;;5.60;3.50;;;;;;;7.54;79.42;100116.33;101873;1302;74074;-23
2022/11/14 06:34:18;;;;;;;5.50;2.90;;;;;;;7.42;79.63;100121.10;102007;1302;64668;-23
2022/11/14 06:37:04;;;;;;;17.50;6.80;;;;;;;7.94;79.09;100119.11;102135;1299;61593;-23
2022/11/14 06:39:49;;;;;;;5.00;3.40;;;;;;;8.52;76.85;100119.80;102098;1302;76779;-23
2022/11/14 06:42:35;;;;;;;6.40;3.80;;;;;;;8.57;76.26;100124.75;102212;1295;76849;-23
2022/11/14 06:45:20;;;;;;;4.30;3.30;;;;;;;8.33;75.83;100123.40;102195;1300;75257;-23
2022/11/14 06:48:06;;;;;;;4.60;2.90;;;;;;;7.94;76.39;100126.86;102075;1294;61881;-23
2022/11/14 06:50:56;;;;;;;7.70;4.20;;;;;;;7.30;78.16;100129.99;102218;1300;61631;-23
2022/11/14 06:53:41;;;;;;;7.70;4.20;;;;;;;7.10;79.07;100132.88;101959;1300;76397;-24
2022/11/14 06:56:27;;;;;;;4.70;3.40;;;;;;;6.92;79.94;100134.44;102093;1299;77203;-24
2022/11/14 06:59:13;;;;;;;8.30;3.40;;;;;;;7.53;77.87;100135.04;102088;1301;74199;-23
2022/11/14 07:01:58;;;;;;;5.70;3.10;;;;;;;7.70;76.68;100129.67;101943;1302;62908;-24
2022/11/14 07:04:45;;;;;;;6.60;4.30;;;;;;;7.32;77.92;100130.06;102004;1302;62847;-24
2022/11/14 07:07:31;;;;;;;6.20;3.80;;;;;;;7.12;80.33;100131.77;101983;1301;75571;-23
2022/11/14 07:10:16;;;;;;;6.10;3.70;;;;;;;6.74;79.87;100132.73;102101;1299;75901;-24
2022/11/14 07:13:02;;;;;;;5.10;2.20;;;;;;;6.90;80.50;100133.01;102185;1294;75284;-24
2022/11/14 07:15:50;;;;;;;4.40;2.20;;;;;;;7.63;77.92;100132.48;102073;1302;62948;-24
2022/11/14 07:18:35;;;;;;;4.60;2.60;;;;;;;8.01;75.28;100128.08;101928;1295;61775;-24
2022/11/14 07:21:21;;;;;;;4.70;2.60;;;;;;;8.25;76.19;100122.62;102153;1302;74650;-24
2022/11/14 07:24:07;;;;;;;6.30;2.80;;;;;;;8.21;75.85;100123.04;102298;1297;75773;-24
2022/11/14 07:26:52;;;;;;;5.50;3.50;;;;;;;8.05;76.26;100123.52;102225;1300;75556;-24
2022/11/14 07:29:38;;;;;;;6.30;3.50;;;;;;;7.81;75.67;100126.36;102123;1294;62923;-24
2022/11/14 07:32:24;;;;;;;5.50;3.20;;;;;;;7.68;76.33;100121.69;102154;1294;62209;-24
2022/11/14 07:35:10;;;;;;;6.00;3.10;;;;;;;7.80;77.12;100117.77;102026;1301;75420;-24
2022/11/14 07:38:02;;;;;;;5.80;3.60;;;;;;;8.60;75.38;100113.63;102079;1301;76874;-24
2022/11/14 07:41:12;;;;;;;8.60;4.40;;;;;;;8.86;73.94;100111.47;101922;1303;74986;-24
2022/11/14 07:43:58;;;;;;;12.30;8.50;;;;;;;8.73;73.54;100108.59;102027;1302;63009;-24
2022/11/14 07:46:43;;;;;;;15.00;8.70;;;;;;;8.55;74.54;100107.51;102015;1294;62385;-24
2022/11/14 07:49:29;;;;;;;10.60;5.70;;;;;;;8.41;74.76;100106.73;101951;1294;76413;-25
2022/11/14 07:52:15;;;;;;;6.90;4.60;;;;;;;8.14;75.81;100111.45;101951;1298;76791;-24
2022/11/14 07:55:00;;;;;;;6.70;3.90;;;;;;;7.82;76.12;100107.65;102084;1301;75054;-24
2022/11/14 07:57:47;;;;;;;3.40;2.90;;;;;;;7.80;76.64;100107.90;102203;1301;64513;-24
2022/11/14 08:00:34;;;;;;;4.20;2.90;;;;;;;8.37;75.50;100106.92;102217;1299;61149;-24
2022/11/14 08:03:20;;;;;;;5.10;3.00;;;;;;;8.86;73.85;100110.84;102160;1294;76357;-24
2022/11/14 08:06:08;;;;;;;6.70;3.90;;;;;;;8.77;73.76;100111.34;102111;1299;75718;-24
2022/11/14 08:08:53;;;;;;;4.50;3.50;;;;;;;8.56;74.15;100111.08;101958;1297;75454;-24
2022/11/14 08:11:48;;;;;;;6.30;4.20;;;;;;;8.37;74.17;100115.25;102208;1293;62802;-24
2022/11/14 08:14:34;;;;;;;4.60;3.30;;;;;;;8.08;74.98;100113.52;102035;1295;62735;-24
2022/11/14 08:17:20;;;;;;;7.30;4.40;;;;;;;7.93;76.39;100115.17;102065;1299;76363;-24
2022/11/14 08:20:07;;;;;;;3.70;2.10;;;;;;;7.94;75.84;100112.70;102097;1294;76675;-24
2022/11/14 08:23:01;;;;;;;4.50;3.20;;;;;;;8.52;74.33;100110.98;101967;1305;75360;-24
2022/11/14 08:25:47;;;;;;;5.20;3.10;;;;;;;8.98;73.66;100114.99;102101;1295;61987;-23
2022/11/14 08:28:32;;;;;;;6.10;4.20;;;;;;;8.90;72.06;100116.29;102109;1300;62886;-24
2022/11/14 08:31:19;;;;;;;8.20;3.90;;;;;;;8.42;72.24;100114.64;102030;1291;76357;-24
2022/11/14 08:34:05;;;;;;;5.50;4.20;;;;;;;8.08;74.94;100116.80;102103;1287;75620;-23
2022/11/14 08:36:51;;;;;;;6.70;3.40;;;;;;;7.60;76.24;100109.98;102200;1299;73216;-24
2022/11/14 08:39:36;;;;;;;4.00;3.10;;;;;;;7.48;77.17;100113.55;102303;1302;62926;-24
2022/11/14 08:42:22;;;;;;;4.30;3.00;;;;;;;7.76;76.87;100113.48;102230;1301;62907;-25
2022/11/14 08:45:08;;;;;;;5.40;2.70;;;;;;;8.17;74.34;100111.13;102219;1301;74329;-26
2022/11/14 08:47:54;;;;;;;5.00;3.70;;;;;;;8.30;74.73;100111.14;102230;1294;76750;-26
2022/11/14 08:50:40;;;;;;;7.50;3.80;;;;;;;8.16;74.02;100111.72;102046;1301;75229;-25
2022/11/14 08:53:25;;;;;;;5.50;3.30;;;;;;;7.89;74.74;100116.96;102200;1299;61807;-26
2022/11/14 08:56:11;;;;;;;5.10;3.20;;;;;;;7.70;74.65;100112.05;102203;1301;63300;-25
2022/11/14 08:58:56;;;;;;;6.40;3.30;;;;;;;7.52;76.65;100114.19;102238;1295;76376;-24
2022/11/14 09:01:42;;;;;;;5.40;3.00;;;;;;;7.43;78.55;100116.92;102128;1299;76576;-24
2022/11/14 09:04:28;;;;;;;5.20;2.10;;;;;;;8.11;74.97;100114.20;102150;1301;74145;-25
2022/11/14 09:07:14;;;;;;;5.70;2.80;;;;;;;8.69;72.77;100107.44;101934;1293;62875;-24
2022/11/14 09:10:00;;;;;;;5.50;2.80;;;;;;;8.77;72.21;100105.95;102027;1301;62790;-24
2022/11/14 09:12:45;;;;;;;5.40;3.00;;;;;;;8.63;72.57;100103.08;102274;1294;75334;-24
2022/11/14 09:15:32;;;;;;;4.60;2.70;;;;;;;8.23;72.78;100100.40;102110;1285;77264;-24
2022/11/14 09:18:18;;;;;;;5.10;2.70;;;;;;;7.93;73.81;100096.00;102020;1299;74154;-24
2022/11/14 09:21:06;;;;;;;4.20;3.10;;;;;;;7.74;74.26;100095.77;102155;1294;62865;-24
2022/11/14 09:23:52;;;;;;;4.00;2.40;;;;;;;7.54;75.63;100093.52;101956;1305;61847;-24
2022/11/14 09:26:44;;;;;;;6.70;2.90;;;;;;;8.10;73.85;100084.70;102025;1299;76315;-24
2022/11/14 09:29:30;;;;;;;4.70;3.10;;;;;;;8.68;72.34;100081.50;102208;1293;75888;-25
2022/11/14 09:32:16;;;;;;;4.40;3.50;;;;;;;8.52;70.98;100083.13;102213;1299;75074;-24
2022/11/14 09:35:02;;;;;;;5.20;2.80;;;;;;;8.25;71.32;100077.30;102161;1304;61576;-24
2022/11/14 09:37:48;;;;;;;7.90;3.00;;;;;;;8.03;72.89;100080.92;102208;1294;62778;-25
2022/11/14 09:40:56;;;;;;;5.10;3.40;;;;;;;7.81;73.38;100081.73;102330;1299;75233;-24
2022/11/14 09:43:45;;;;;;;7.80;3.50;;;;;;;7.71;73.86;100077.59;102235;1299;76854;-24
2022/11/14 09:46:33;;;;;;;5.50;3.90;;;;;;;7.64;74.69;100078.50;102069;1302;73178;-24
2022/11/14 09:49:37;;;;;;;7.10;3.10;;;;;;;7.59;74.26;100073.73;101958;1293;64676;-24
2022/11/14 09:52:35;;;;;;;;;;;;;;;8.38;73.62;100070.38;101991;1300;62796;-25
2022/11/14 09:55:29;;;;;;;11.00;4.10;;;;;;;8.76;70.92;100070.67;101975;1301;75450;-23
2022/11/14 09:58:21;;;;;;;9.10;4.20;;;;;;;8.50;70.28;100068.01;101868;1299;76628;-23
2022/11/14 10:01:32;;;;;;;8.10;4.40;;;;;;;8.20;72.22;100066.36;102080;1301;75104;-24
2022/11/14 10:04:50;;;;;;;8.20;4.90;;;;;;;8.19;71.38;100063.63;102106;1295;62879;-23
2022/11/14 10:07:58;;;;;;;7.70;4.70;;;;;;;8.43;72.18;100059.38;102095;1301;62825;-24
2022/11/14 10:10:58;;;;;;;7.50;4.70;;;;;;;8.58;71.29;100057.68;102109;1293;75290;-24
2022/11/14 10:14:06;;;;;;;7.80;5.40;;;;;;;8.56;70.69;100056.77;102099;1294;76263;-24
2022/11/14 10:17:16;;;;;;;6.50;4.10;;;;;;;8.73;70.00;100048.89;102243;1301;75296;-24
2022/11/14 10:20:24;;;;;;;8.50;5.20;;;;;;;9.05;69.38;100043.70;102170;1299;62479;-24
2022/11/14 10:23:17;;;;;;;7.10;4.40;;;;;;;9.24;68.36;100046.09;101959;1302;62924;-24
2022/11/14 10:26:06;;;;;;;28.50;16.10;;;;;;;9.73;68.10;100041.76;101929;1285;74219;-24
2022/11/14 10:29:40;;;;;;;9.00;4.70;;;;;;;9.83;64.70;100042.50;102010;1295;75793;-24
2022/11/14 10:32:47;;;;;;;7.20;4.40;;;;;;;10.45;66.39;100045.90;101963;1294;74234;-24
2022/11/14 10:35:48;;;;;;;10.00;5.10;;;;;;;10.81;63.25;100047.52;102154;1301;61667;-24
2022/11/14 10:38:37;;;;;;;4.40;3.10;;;;;;;10.21;62.44;100047.41;102051;1295;62690;-24
2022/11/14 10:41:24;;;;;;;5.00;3.50;;;;;;;10.08;63.54;100045.10;101968;1297;76303;-24
2022/11/14 10:44:33;;;;;;;14.20;8.60;;;;;;;10.35;62.84;100037.64;102006;1299;75849;-25
2022/11/14 10:47:20;;;;;;;5.60;3.00;;;;;;;10.78;62.95;100034.91;101957;1301;75049;-24
2022/11/14 10:50:19;;;;;;;5.50;3.20;;;;;;;11.06;59.92;100036.38;101953;1302;62880;-24
2022/11/14 10:53:09;;;;;;;6.00;3.30;;;;;;;11.41;60.63;100029.45;101947;1297;61491;-24
2022/11/14 10:55:55;;;;;;;4.10;2.60;;;;;;;11.73;58.69;100023.77;101933;1300;75707;-24
2022/11/14 10:58:49;;;;;;;5.40;3.40;;;;;;;12.01;58.90;100016.74;102091;1295;76707;-24
2022/11/14 11:01:43;;;;;;;3.60;2.70;;;;;;;12.05;57.19;100015.41;102061;1301;73702;-24
2022/11/14 11:04:32;;;;;;;5.90;4.20;;;;;;;12.06;56.66;100012.23;102037;1302;61779;-24
2022/11/14 11:14:01;;;;;;;5.00;3.40;;;;;;;12.33;55.94;100009.92;102102;1301;75731;-24
2022/11/14 11:16:48;;;;;;;3.80;3.10;;;;;;;12.43;55.42;100006.79;102095;1301;75383;-24
2022/11/14 11:19:33;;;;;;;4.90;3.70;;;;;;;12.38;55.39;100000.52;102103;1300;62817;-24
2022/11/14 11:22:28;;;;;;;5.60;4.40;;;;;;;12.49;56.36;99994.82;101955;1294;62884;-24
2022/11/14 11:25:23;;;;;;;9.90;4.70;;;;;;;12.17;56.03;99989.52;101940;1302;75185;-24
2022/11/14 11:28:14;;;;;;;8.10;4.90;;;;;;;12.06;57.40;99987.88;102215;1300;75765;-24
2022/11/14 11:31:05;;;;;;;7.50;5.10;;;;;;;11.66;56.86;99988.09;101941;1298;74105;-24
2022/11/14 11:33:51;;;;;;;7.60;4.60;;;;;;;11.62;56.85;99984.33;101954;1301;62273;-24
2022/11/14 11:36:40;;;;;;;4.90;3.20;;;;;;;11.59;57.64;99983.33;102175;1294;62847;-24
2022/11/14 11:39:28;;;;;;;4.10;3.10;;;;;;;11.59;57.49;99980.90;101974;1294;75346;-24
2022/11/14 11:42:21;;;;;;;7.90;3.20;;;;;;;11.59;58.11;99978.79;101892;1304;76880;-24
2022/11/14 11:45:17;;;;;;;4.80;3.10;;;;;;;11.74;58.11;99974.61;101925;1297;74107;-24
2022/11/14 11:48:09;;;;;;;4.10;2.90;;;;;;;11.73;57.52;99973.98;101960;1300;62728;-24
2022/11/14 11:50:55;;;;;;;7.00;2.70;;;;;;;11.74;58.10;99974.61;101957;1295;62784;-24
2022/11/14 11:53:47;;;;;;;6.10;2.70;;;;;;;11.64;57.62;99972.05;101991;1301;76334;-23
2022/11/14 11:56:32;;;;;;;3.40;2.40;;;;;;;11.55;58.26;99973.02;101953;1294;76937;-23
2022/11/14 11:59:39;;;;;;;4.80;2.50;;;;;;;11.36;56.88;99976.63;102028;1294;75258;-23
2022/11/14 12:02:25;;;;;;;3.60;2.00;;;;;;;11.19;58.21;99975.86;102012;1304;62803;-23
2022/11/14 12:05:16;;;;;;;4.50;2.50;;;;;;;11.06;58.18;99968.74;102226;1302;62909;-23
2022/11/14 12:08:06;;;;;;;5.80;2.40;;;;;;;10.92;58.11;99965.55;101966;1296;76523;-23
2022/11/14 12:10:51;;;;;;;3.60;2.20;;;;;;;10.79;59.09;99958.79;101997;1291;77182;-23
2022/11/14 12:13:46;;;;;;;2.90;2.00;;;;;;;10.65;58.48;99961.25;101979;1301;75051;-25
2022/11/14 12:16:41;;;;;;;3.10;2.60;;;;;;;10.53;59.53;99959.78;101953;1302;61853;-27
2022/11/14 12:19:36;;;;;;;3.50;2.30;;;;;;;10.39;60.58;99956.04;101958;1296;61827;-26
2022/11/14 12:22:57;;;;;;;3.70;2.40;;;;;;;10.23;61.07;99955.46;101980;1301;76328;-26
2022/11/14 12:25:56;;;;;;;5.70;2.30;;;;;;;10.06;61.70;99952.58;102050;1291;75870;-24
2022/11/14 12:28:58;;;;;;;3.90;2.40;;;;;;;9.88;62.61;99952.86;102071;1301;74166;-25
2022/11/14 12:31:44;;;;;;;3.70;2.40;;;;;;;9.87;62.66;99951.52;102084;1297;62977;-25
2022/11/14 12:34:41;;;;;;;4.30;2.80;;;;;;;9.85;63.14;99949.23;101994;1301;61754;-24
2022/11/14 12:37:35;;;;;;;4.50;2.50;;;;;;;9.88;62.50;99948.70;102021;1294;74380;-24
2022/11/14 12:40:32;;;;;;;4.40;2.50;;;;;;;9.88;62.90;99948.18;101982;1297;76782;-24
2022/11/14 12:43:31;;;;;;;2.90;2.20;;;;;;;9.90;62.88;99941.64;101883;1298;73983;-25
2022/11/14 12:46:21;;;;;;;4.50;3.10;;;;;;;9.96;63.17;99938.65;101942;1302;61686;-24
2022/11/14 12:49:46;;;;;;;3.50;2.50;;;;;;;9.88;62.61;99940.21;102129;1295;61772;-24
2022/11/14 12:52:53;;;;;;;3.40;2.50;;;;;;;9.77;62.78;99940.70;102148;1300;76381;-24
2022/11/14 12:55:45;;;;;;;4.10;2.50;;;;;;;9.79;62.83;99940.61;102291;1302;76762;-24
2022/11/14 12:58:53;;;;;;;5.50;2.80;;;;;;;9.79;63.32;99939.19;102047;1303;75281;-24
2022/11/14 13:01:46;;;;;;;5.20;3.40;;;;;;;9.67;63.19;99937.55;102202;1301;61822;-24
2022/11/14 13:04:41;;;;;;;6.20;3.30;;;;;;;9.47;63.75;99935.35;101947;1301;61673;-24
2022/11/14 13:08:05;;;;;;;4.60;3.50;;;;;;;9.32;64.15;99937.64;102138;1301;75269;-24
2022/11/14 13:10:50;;;;;;;13.50;4.00;;;;;;;9.11;64.87;99932.52;102219;1294;76797;-24